Main page
METAR-TAF:

METAR-TAF

Airports :

Al Maktoum International Airport

Dubai, United Arab Emirates

latitude: 24-53-49N, longitude: 55-09-40E, elevation: 35 m

Current weather observation

The report was made 34 minutes ago, at 00:00 UTC
Wind 5 kt from the East/Northeast
Temperature 15°C
Humidity 44%
Pressure 1017 hPa
Visibility 10 km or more
no clouds below 1500 m and no cumulonimbus

METAR: OMDW 180000Z 06005KT CAVOK 15/03 Q1017 NOSIG

Time: 04:34 (00:34 UTC)

Forecast

The report was made 1 hour and 38 minutes ago, at 22:56 UTC
Forecast valid from 18 at 00 UTC to 19 at 06 UTC
Wind 5 kt from the East
Visibility: 8000 m
Becoming
from 18 at 03 UTC to 18 at 05 UTC
Wind 13 kt from the South
Becoming
from 18 at 10 UTC to 18 at 12 UTC
Wind 10 kt from the North
Becoming
from 18 at 15 UTC to 18 at 17 UTC
Wind 5 kt from the East

TAF: OMDW 172256Z 1800/1906 08005KT 8000 NSC BECMG 1803/1805 17013KT BECMG 1810/1812 35010KT BECMG 1815/1817 08005KT

Weather observations and forecasts of more than 4000 airports (METAR and TAF reports).

The available stations are represented by yellow and red dots on the map.

Hover mouse over dot to see the name of the station.

Then click to see weather observations and forecasts.

To change the map : click on the green buttons with a black cross to zoom in, on the green button with a dash to zoom out, or on the green arrows for adjacent maps.


METAR-TAF: